Time;durP1;ratioP1;P1;durP2;ratioP2;P2;SDS_P1;SDS_P2;PMS_P1;PMS_P2;Temp;Humidity;BMP_temperature;BMP_pressure;BME280_temperature;BME280_humidity;BME280_pressure;Samples;Min_cycle;Max_cycle;Signal;HPM_P1;HPM_P2
2022/07/28 00:02:10;;;;;;;5.25;1.30;;;18.60;76.60;;;15.70;66.29;100930.69;5033836;28;20048;-80
2022/07/28 00:04:37;;;;;;;4.65;1.40;;;18.60;76.90;;;15.66;65.74;100929.41;5040426;28;20538;-80
2022/07/28 00:07:04;;;;;;;4.95;1.05;;;18.50;76.50;;;15.61;65.74;100935.50;5025614;28;20038;-80
2022/07/28 00:09:32;;;;;;;4.22;1.27;;;18.50;76.40;;;15.67;65.53;100922.84;5032047;28;20138;-80
2022/07/28 00:11:59;;;;;;;4.72;1.23;;;18.40;76.50;;;15.62;65.80;100918.84;5044295;28;20052;-80
2022/07/28 00:14:26;;;;;;;5.32;1.45;;;18.40;76.60;;;15.60;66.31;100926.44;5052142;28;20052;-80
2022/07/28 00:16:55;;;;;;;3.95;1.30;;;18.40;77.20;;;15.58;66.15;100914.84;5039960;28;20070;-80
2022/07/28 00:19:22;;;;;;;6.30;1.15;;;18.40;77.00;;;15.59;66.59;100918.41;5030031;28;20051;-80
2022/07/28 00:21:49;;;;;;;5.60;1.38;;;18.40;77.30;;;15.55;66.48;100915.22;5046530;28;20045;-80
2022/07/28 00:24:17;;;;;;;6.00;1.52;;;18.40;77.10;;;15.58;66.27;100917.56;5048001;28;20129;-80
2022/07/28 00:26:44;;;;;;;4.95;1.38;;;18.40;77.00;;;15.57;66.62;100915.03;5032122;28;20474;-80
2022/07/28 00:29:11;;;;;;;4.20;1.33;;;18.40;77.20;;;15.61;66.32;100910.81;5027937;28;20513;-80
2022/07/28 00:31:38;;;;;;;6.78;1.30;;;18.40;77.10;;;15.61;66.32;100917.16;5012075;28;20141;-80
2022/07/28 00:34:07;;;;;;;4.05;1.30;;;18.40;77.20;;;15.58;66.36;100912.09;5013485;28;20171;-80
2022/07/28 00:36:34;;;;;;;9.85;1.85;;;18.40;77.20;;;15.52;66.76;100912.94;5034284;28;20041;-80
2022/07/28 00:39:01;;;;;;;4.43;1.20;;;18.40;77.40;;;15.48;67.10;100916.28;5028593;28;20144;-80
2022/07/28 00:41:28;;;;;;;6.35;1.52;;;18.40;77.40;;;15.48;66.69;100911.66;5039108;28;20124;-80
2022/07/28 00:43:56;;;;;;;4.00;1.17;;;18.40;77.50;;;15.50;66.93;100915.03;5051399;28;20103;-80
2022/07/28 00:46:23;;;;;;;3.00;1.20;;;18.30;77.60;;;15.49;67.71;100912.50;5032498;28;20041;-80
2022/07/28 00:48:53;;;;;;;6.60;1.30;;;18.30;78.10;;;15.41;67.92;100911.63;5030447;28;20049;-80
2022/07/28 00:51:24;;;;;;;4.43;1.30;;;18.30;78.30;;;15.38;67.79;100905.69;5014352;28;20046;-80
2022/07/28 00:53:52;;;;;;;5.35;2.00;;;18.30;78.30;;;15.42;67.32;100909.72;5011371;28;20049;-80
2022/07/28 00:56:20;;;;;;;6.13;1.17;;;18.30;78.00;;;15.40;67.62;100900.84;5033723;28;20041;-80
2022/07/28 00:58:49;;;;;;;5.10;1.25;;;18.30;78.10;;;15.39;67.63;100897.28;5046390;28;20047;-80
2022/07/28 01:01:19;;;;;;;6.40;1.42;;;18.20;78.10;;;15.38;67.51;100897.47;5034787;28;20562;-80
2022/07/28 01:03:50;;;;;;;4.85;1.23;;;18.20;78.00;;;15.37;68.01;100890.31;5031519;28;20559;-80
2022/07/28 01:06:51;;;;;;;6.57;1.35;;;18.20;78.40;;;15.39;67.96;100888.22;5016321;28;20124;-80
2022/07/28 01:09:38;;;;;;;4.88;1.67;;;18.20;78.40;;;15.35;68.00;100892.44;5024570;28;20140;-80
2022/07/28 01:12:14;;;;;;;8.80;1.30;;;18.20;78.70;;;15.33;68.00;100887.13;5016063;28;20120;-80
2022/07/28 01:14:49;;;;;;;4.57;1.33;;;18.20;78.50;;;15.34;68.31;100896.19;5040911;28;20499;-80
2022/07/28 01:17:28;;;;;;;3.65;1.20;;;18.20;78.60;;;15.22;69.02;100890.47;5031175;28;20460;-80
2022/07/28 01:20:06;;;;;;;8.68;1.55;;;18.20;78.90;;;15.17;68.88;100888.38;5027891;28;20136;-80
2022/07/28 01:22:40;;;;;;;6.00;1.42;;;18.20;79.00;;;15.14;69.09;100883.28;5021186;28;20049;-80
2022/07/28 01:25:21;;;;;;;3.75;1.13;;;18.10;79.00;;;15.15;69.06;100878.63;5038259;28;20041;-80
2022/07/28 01:28:06;;;;;;;4.07;1.13;;;18.10;79.10;;;15.20;68.95;100887.09;5037333;28;20079;-80
2022/07/28 01:30:41;;;;;;;8.18;1.50;;;18.10;79.10;;;15.17;68.91;100893.84;5024676;28;20042;-80
2022/07/28 01:33:15;;;;;;;5.18;1.30;;;18.10;79.20;;;15.16;69.26;100886.66;5030573;28;20049;-80
2022/07/28 01:35:47;;;;;;;4.63;1.48;;;18.20;79.20;;;15.17;69.07;100882.88;5028692;28;20038;-80
2022/07/28 01:38:17;;;;;;;5.60;1.42;;;18.10;79.30;;;15.17;69.25;100880.16;5030202;28;20084;-80
2022/07/28 01:40:46;;;;;;;7.30;1.50;;;18.10;79.40;;;15.16;69.03;100881.19;5029261;28;20041;-80
2022/07/28 01:43:25;;;;;;;5.65;1.40;;;18.10;79.50;;;15.11;69.89;100882.84;5030676;28;20056;-80
2022/07/28 01:45:56;;;;;;;6.55;1.70;;;18.00;79.80;;;15.05;69.65;100877.13;5023392;28;20405;-80
2022/07/28 01:48:26;;;;;;;3.58;1.52;;;18.00;79.50;;;15.00;70.19;100878.78;5010050;28;20113;-80
2022/07/28 01:50:56;;;;;;;5.35;1.55;;;18.00;79.90;;;15.00;70.52;100879.66;5023114;28;20132;-80
2022/07/28 01:53:26;;;;;;;6.80;1.75;;;18.00;80.10;;;14.97;70.94;100876.47;5037830;28;20052;-80
2022/07/28 01:55:54;;;;;;;6.75;1.73;;;18.00;80.20;;;14.88;71.22;100877.69;5020232;28;20050;-80
2022/07/28 01:58:25;;;;;;;6.40;1.50;;;17.90;80.50;;;14.90;70.58;100886.56;5018296;28;20681;-80
2022/07/28 02:00:55;;;;;;;3.72;1.27;;;17.90;80.30;;;14.96;70.56;100880.25;5041070;28;20037;-80
2022/07/28 02:03:25;;;;;;;4.25;1.40;;;17.90;80.20;;;14.93;70.56;100870.56;5049612;28;20037;-80
2022/07/28 02:05:55;;;;;;;4.47;1.38;;;17.90;80.30;;;14.85;70.99;100871.59;5038464;28;20051;-80
2022/07/28 02:08:24;;;;;;;4.77;1.73;;;17.90;80.50;;;14.80;71.34;100870.50;5037285;28;20052;-80
2022/07/28 02:13:41;;;;;;;7.95;1.52;;;17.80;80.50;;;14.80;71.54;100863.13;5028704;28;20383;-80
2022/07/28 02:16:12;;;;;;;7.63;1.73;;;17.90;80.60;;;14.69;72.29;100850.00;5019068;28;20059;-80
2022/07/28 02:18:43;;;;;;;4.45;1.58;;;17.90;81.10;;;14.56;73.00;100853.47;5024554;28;20577;-80
2022/07/28 02:21:12;;;;;;;6.13;1.50;;;17.80;81.10;;;14.51;73.61;100860.59;5019628;28;20509;-80
2022/07/28 02:23:41;;;;;;;8.27;1.92;;;17.70;81.40;;;14.47;73.31;100858.28;5024127;28;20046;-80
2022/07/28 02:26:12;;;;;;;5.10;1.60;;;17.70;81.20;;;14.41;73.58;100860.97;5026880;28;20053;-80
2022/07/28 02:28:42;;;;;;;7.43;1.83;;;17.70;81.50;;;14.40;73.52;100854.66;5026286;28;20053;-80
2022/07/28 02:31:19;;;;;;;6.32;1.92;;;17.70;81.60;;;14.32;74.55;100849.34;5020961;28;20034;-80
2022/07/28 02:33:47;;;;;;;5.80;1.80;;;17.60;81.90;;;14.33;74.09;100852.94;5009889;28;20046;-80
2022/07/28 02:36:25;;;;;;;5.90;1.60;;;17.60;81.80;;;14.24;75.09;100841.28;5009724;28;20046;-80
2022/07/28 02:38:56;;;;;;;5.15;1.88;;;17.60;82.10;;;14.17;75.55;100846.72;5020511;28;20049;-80
2022/07/28 02:41:27;;;;;;;4.13;1.50;;;17.50;82.50;;;14.09;75.88;100841.41;5029366;28;20056;-80
2022/07/28 02:44:00;;;;;;;7.15;1.80;;;17.50;82.70;;;14.00;76.91;100851.66;5034885;28;20571;-80
2022/07/28 02:46:37;;;;;;;4.57;1.52;;;17.40;83.00;;;13.93;77.01;100839.81;5041575;28;20084;-80
2022/07/28 02:49:09;;;;;;;6.20;1.90;;;17.40;83.30;;;13.95;76.90;100845.94;5035176;28;20049;-80
2022/07/28 02:51:40;;;;;;;4.85;1.77;;;17.40;83.40;;;13.91;77.92;100839.16;5029621;28;20528;-80
2022/07/28 02:54:08;;;;;;;8.10;1.80;;;17.40;83.70;;;13.84;78.19;100832.78;5027791;28;20048;-80
2022/07/28 02:56:36;;;;;;;5.22;1.77;;;17.30;83.90;;;13.82;78.24;100840.34;5041127;28;20037;-80
2022/07/28 02:59:04;;;;;;;4.57;1.85;;;17.30;84.10;;;13.74;79.54;100840.50;5034882;28;20049;-80
2022/07/28 03:01:32;;;;;;;5.05;1.95;;;17.30;84.70;;;13.75;78.63;100843.03;5040241;28;20120;-80
2022/07/28 03:04:00;;;;;;;4.30;1.73;;;17.20;84.20;;;13.74;78.74;100841.34;5036914;28;20087;-80
2022/07/28 03:06:27;;;;;;;8.05;1.80;;;17.20;84.30;;;13.73;79.38;100833.31;5027962;28;20041;-80
2022/07/28 03:08:54;;;;;;;7.22;1.65;;;17.20;84.70;;;13.77;78.81;100831.91;5078586;22;20127;-85
2022/07/28 03:11:22;;;;;;;6.25;1.80;;;17.20;84.40;;;13.74;79.18;100837.75;5049128;28;20051;-84
2022/07/28 03:13:49;;;;;;;7.55;1.65;;;17.20;84.60;;;13.72;79.65;100843.44;5053507;28;20047;-85
2022/07/28 03:16:16;;;;;;;7.22;1.95;;;17.20;84.80;;;13.68;79.66;100845.72;5064540;28;20045;-85
2022/07/28 03:18:45;;;;;;;9.43;1.67;;;17.20;84.80;;;13.77;79.57;100845.59;5044375;28;20437;-85
2022/07/28 03:21:12;;;;;;;5.65;1.42;;;17.10;84.80;;;13.73;79.50;100841.53;5030727;28;20042;-84
2022/07/28 03:23:43;;;;;;;9.07;2.00;;;17.10;85.10;;;13.78;79.47;100841.78;5040829;28;20045;-85
2022/07/28 03:26:16;;;;;;;6.28;1.50;;;17.10;85.00;;;13.71;79.93;100843.63;5052263;28;20465;-84
2022/07/28 03:28:45;;;;;;;7.40;1.83;;;17.10;85.20;;;13.67;80.32;100837.72;5046340;28;20052;-85
2022/07/28 03:31:15;;;;;;;6.82;1.67;;;17.10;85.40;;;13.69;79.72;100844.69;5033034;28;20041;-85
2022/07/28 03:33:44;;;;;;;6.00;1.70;;;17.10;85.20;;;13.69;79.82;100836.47;5030546;28;20069;-85
2022/07/28 03:36:18;;;;;;;5.95;2.00;;;17.00;85.30;;;13.69;79.79;100839.22;5039360;28;20061;-85
2022/07/28 03:38:54;;;;;;;7.22;1.63;;;17.00;85.20;;;13.72;80.20;100845.31;5047140;28;20128;-85
2022/07/28 03:41:22;;;;;;;5.55;2.15;;;17.00;85.50;;;13.65;80.46;100846.13;5032798;28;20510;-85
2022/07/28 03:43:52;;;;;;;6.78;1.60;;;17.00;85.80;;;13.69;80.25;100847.41;5029212;28;20410;-85
2022/07/28 03:46:20;;;;;;;6.13;1.60;;;17.20;85.80;;;13.76;80.05;100846.63;5012850;28;20037;-85
2022/07/28 03:48:49;;;;;;;5.32;1.77;;;17.00;85.60;;;13.80;79.96;100847.91;5012251;28;20049;-85
2022/07/28 03:51:16;;;;;;;5.05;1.50;;;17.00;85.60;;;13.82;80.02;100846.69;5032146;28;20520;-85
2022/07/28 03:53:44;;;;;;;6.32;1.73;;;17.00;85.70;;;13.84;80.14;100854.66;5031833;28;20071;-85
2022/07/28 03:56:11;;;;;;;5.50;1.58;;;17.00;85.80;;;13.83;79.85;100847.53;5033749;28;20063;-85
2022/07/28 03:58:38;;;;;;;8.50;1.65;;;17.00;85.90;;;13.84;79.95;100849.19;5042705;28;20072;-85
2022/07/28 04:01:06;;;;;;;3.92;1.50;;;17.00;85.90;;;13.85;79.81;100848.16;5012767;28;20038;-85
2022/07/28 04:03:33;;;;;;;5.30;1.73;;;17.00;86.10;;;13.81;81.25;100852.34;5012768;28;20041;-85
2022/07/28 04:06:02;;;;;;;9.05;2.42;;;17.00;86.30;;;13.79;80.78;100840.75;5012378;28;20034;-85
2022/07/28 04:08:29;;;;;;;4.70;1.60;;;17.00;86.40;;;13.85;80.33;100839.97;5011705;28;20050;-85
2022/07/28 04:10:56;;;;;;;7.25;2.10;;;17.00;86.30;;;13.83;80.92;100836.59;5029460;28;20045;-85
2022/07/28 04:13:23;;;;;;;8.00;1.63;;;17.00;86.50;;;13.81;81.94;100838.66;5032375;28;20076;-86
2022/07/28 04:15:50;;;;;;;9.23;2.15;;;16.90;87.10;;;13.88;81.44;100834.94;5033080;28;20037;-85
2022/07/28 04:18:18;;;;;;;6.93;1.88;;;16.90;87.00;;;13.86;81.20;100833.47;5031668;28;20051;-86
2022/07/28 04:20:45;;;;;;;6.00;1.75;;;16.90;87.10;;;13.85;81.78;100834.50;5030944;28;20678;-87
2022/07/28 04:23:14;;;;;;;6.50;1.80;;;16.90;87.30;;;14.02;80.40;100830.41;5019482;28;20056;-85
2022/07/28 04:25:41;;;;;;;6.10;1.70;;;16.90;86.90;;;14.06;80.05;100826.22;5010220;28;20034;-91
2022/07/28 04:28:08;;;;;;;4.90;1.77;;;17.00;86.60;;;14.16;80.14;100827.75;5009282;28;20152;-85
2022/07/28 04:30:35;;;;;;;4.95;1.70;;;17.00;86.80;;;14.21;80.08;100839.81;5014968;28;20116;-82
2022/07/28 04:33:02;;;;;;;6.22;1.88;;;17.00;87.00;;;14.31;79.54;100833.13;5037554;28;20506;-81
2022/07/28 04:35:30;;;;;;;9.45;2.22;;;17.00;86.80;;;14.35;80.02;100834.41;5051396;28;20088;-82
2022/07/28 04:37:58;;;;;;;4.15;1.88;;;17.00;87.30;;;14.43;79.25;100828.75;5049765;28;20472;-82
2022/07/28 04:40:27;;;;;;;7.40;2.00;;;17.10;87.10;;;14.54;78.29;100838.31;5031264;28;20061;-82
2022/07/28 04:42:55;;;;;;;8.98;1.85;;;17.10;86.90;;;14.60;78.00;100834.78;5016716;28;20529;-82
2022/07/28 04:45:22;;;;;;;6.75;2.25;;;17.10;86.50;;;14.62;77.98;100841.75;5032516;28;20611;-82
2022/07/28 04:47:50;;;;;;;7.88;2.17;;;17.10;86.70;;;14.54;78.34;100841.03;5026373;28;20048;-82
2022/07/28 04:50:20;;;;;;;12.20;2.35;;;17.10;86.60;;;14.63;78.37;100848.91;5030903;28;20100;-82
2022/07/28 04:52:48;;;;;;;7.78;2.10;;;17.20;86.80;;;14.61;78.36;100845.53;5030923;28;20099;-82
2022/07/28 04:55:15;;;;;;;9.15;2.47;;;17.20;87.00;;;14.67;77.65;100849.34;5031319;28;20096;-82
2022/07/28 04:57:44;;;;;;;8.75;2.33;;;17.20;86.70;;;14.58;78.14;100850.56;5020366;28;20050;-82
2022/07/28 05:00:13;;;;;;;10.52;2.05;;;17.20;86.40;;;14.59;79.16;100852.28;5014960;28;20458;-82
2022/07/28 05:02:41;;;;;;;12.88;2.42;;;17.20;87.30;;;14.69;79.14;100847.25;5021272;28;20046;-82
2022/07/28 05:05:09;;;;;;;6.30;1.95;;;17.20;87.20;;;14.81;78.10;100842.03;5016230;28;20077;-82
2022/07/28 05:07:36;;;;;;;7.93;2.28;;;17.30;87.20;;;15.01;77.42;100845.69;5031417;28;20045;-83
2022/07/28 05:10:05;;;;;;;8.55;2.70;;;17.30;87.00;;;15.15;76.73;100840.25;5030830;28;20524;-83
2022/07/28 05:12:32;;;;;;;7.70;2.88;;;17.30;86.70;;;15.30;76.14;100837.34;5028059;28;20059;-82
2022/07/28 05:15:01;;;;;;;9.30;2.30;;;17.40;86.60;;;15.43;75.52;100832.72;5032823;28;20045;-81
2022/07/28 05:17:28;;;;;;;10.82;2.35;;;17.50;86.80;;;15.53;75.72;100834.22;5026163;28;20124;-82
2022/07/28 05:19:55;;;;;;;8.48;2.90;;;17.50;86.80;;;15.50;76.12;100838.22;5029574;28;20045;-82
2022/07/28 05:22:22;;;;;;;11.65;2.90;;;17.60;87.20;;;15.58;76.10;100848.16;5019490;28;20462;-82
2022/07/28 05:24:50;;;;;;;11.25;2.60;;;17.60;87.10;;;15.64;75.65;100841.81;5006797;28;20129;-80
2022/07/28 05:27:17;;;;;;;9.63;2.38;;;17.60;86.90;;;15.60;76.52;100837.81;5025985;28;20037;-84
2022/07/28 05:29:44;;;;;;;8.65;2.22;;;17.70;87.50;;;15.60;75.42;100844.13;5024007;28;20043;-83
2022/07/28 05:32:12;;;;;;;7.13;2.28;;;17.70;86.80;;;15.63;75.77;100840.97;5025624;28;20049;-83
2022/07/28 05:34:42;;;;;;;7.70;2.20;;;17.70;86.90;;;15.70;75.02;100834.66;5025987;28;20045;-84
2022/07/28 05:37:09;;;;;;;7.57;2.53;;;17.70;86.60;;;15.79;74.17;100841.66;5021754;28;20042;-83
2022/07/28 05:39:36;;;;;;;6.35;2.38;;;17.80;86.00;;;15.86;73.87;100831.53;5025349;28;20045;-83
2022/07/28 05:42:04;;;;;;;9.05;2.70;;;17.80;85.90;;;15.88;73.76;100831.28;5016823;28;20046;-83
2022/07/28 05:44:31;;;;;;;10.95;2.20;;;17.80;85.70;;;15.97;73.97;100832.75;5024018;28;20083;-83
2022/07/28 05:46:59;;;;;;;7.65;2.25;;;17.80;86.00;;;16.08;73.51;100828.53;5031135;28;21433;-83
2022/07/28 05:49:27;;;;;;;14.48;2.78;;;17.90;85.90;;;16.21;73.05;100829.34;5030189;28;20123;-83
2022/07/28 05:51:54;;;;;;;9.18;2.70;;;18.00;85.70;;;16.27;71.94;100827.66;5029839;28;20037;-84
2022/07/28 05:54:22;;;;;;;8.10;2.47;;;18.00;85.00;;;16.40;71.53;100824.88;5045148;28;20142;-83
2022/07/28 05:56:49;;;;;;;8.43;2.53;;;18.10;85.00;;;16.47;71.46;100832.25;5024726;28;20087;-83
2022/07/28 05:59:17;;;;;;;8.55;2.53;;;18.20;85.00;;;16.58;70.81;100826.94;5026225;28;20108;-83
2022/07/28 06:01:44;;;;;;;9.95;2.50;;;18.20;84.40;;;16.83;70.28;100820.75;5034672;28;20047;-83
2022/07/28 06:04:11;;;;;;;7.50;2.53;;;18.40;84.10;;;16.92;70.01;100827.66;5025628;28;20676;-83
2022/07/28 06:06:40;;;;;;;7.15;2.20;;;18.40;84.10;;;16.90;70.25;100826.19;5025277;28;20069;-84
2022/07/28 06:09:07;;;;;;;11.88;2.78;;;18.50;84.00;;;17.02;69.40;100821.72;5028249;28;20473;-84
2022/07/28 06:11:35;;;;;;;11.57;2.42;;;18.60;83.70;;;16.99;69.37;100824.91;5033746;28;20041;-83
2022/07/28 06:14:02;;;;;;;10.02;2.42;;;18.60;83.50;;;17.27;69.16;100827.28;5025873;28;20048;-83
2022/07/28 06:16:29;;;;;;;8.35;2.78;;;18.70;83.60;;;17.49;67.69;100821.41;5018898;28;20549;-81
2022/07/28 06:18:56;;;;;;;12.93;3.13;;;18.80;83.40;;;18.23;65.69;100819.72;5029247;28;20041;-81
2022/07/28 06:21:24;;;;;;;10.38;2.20;;;18.80;83.20;;;21.18;57.42;100811.13;5032667;28;20096;-81
2022/07/28 06:23:52;;;;;;;11.07;2.60;;;19.00;83.00;;;22.07;53.56;100807.69;5024305;28;20457;-81
2022/07/28 06:26:20;;;;;;;7.03;2.30;;;19.10;82.70;;;21.04;54.72;100807.81;5024463;28;20065;-81
2022/07/28 06:28:47;;;;;;;10.07;2.03;;;19.20;81.30;;;20.27;56.72;100809.75;5019149;28;20049;-81
2022/07/28 06:31:14;;;;;;;6.70;2.38;;;19.40;80.90;;;20.00;58.32;100808.59;5023704;28;20034;-81
2022/07/28 06:33:42;;;;;;;15.85;2.45;;;19.60;80.90;;;20.02;58.60;100804.50;5027090;28;20052;-81
2022/07/28 06:36:09;;;;;;;5.97;1.92;;;19.70;80.90;;;20.10;57.85;100811.59;5028136;28;20052;-82
2022/07/28 06:38:36;;;;;;;12.02;2.83;;;19.80;80.30;;;20.09;58.68;100820.97;5022433;28;20471;-83
2022/07/28 06:41:05;;;;;;;5.20;1.90;;;20.00;80.30;;;19.88;58.26;100826.00;5032218;28;20040;-83
2022/07/28 06:43:32;;;;;;;7.22;1.73;;;20.00;79.40;;;19.74;59.99;100827.28;5022675;28;20528;-86
2022/07/28 06:45:59;;;;;;;7.13;2.28;;;20.10;79.60;;;19.52;58.63;100822.31;5024454;28;20037;-86
2022/07/28 06:48:26;;;;;;;7.53;2.08;;;20.10;78.70;;;19.33;58.85;100815.19;5022771;28;20458;-82
2022/07/28 06:50:55;;;;;;;9.05;2.10;;;20.10;78.10;;;19.43;59.01;100811.84;5030185;28;20050;-81
2022/07/28 06:53:22;;;;;;;8.55;2.05;;;20.10;78.30;;;19.22;59.70;100821.50;5035022;28;20635;-81
2022/07/28 06:55:49;;;;;;;9.52;2.15;;;20.10;78.30;;;19.07;60.36;100822.75;5022013;28;20038;-83
2022/07/28 06:58:18;;;;;;;12.88;2.13;;;20.10;78.40;;;19.31;59.95;100823.69;5020603;28;20041;-85
2022/07/28 07:00:45;;;;;;;8.10;2.45;;;20.10;78.50;;;19.41;59.59;100836.91;5022371;28;20169;-80
2022/07/28 07:03:12;;;;;;;11.15;2.40;;;20.10;78.40;;;19.24;58.73;100824.88;5029481;28;20474;-80
2022/07/28 07:05:40;;;;;;;7.47;2.22;;;20.10;77.50;;;19.06;60.00;100823.84;5011804;28;20096;-80
2022/07/28 07:08:07;;;;;;;8.93;2.10;;;20.10;78.10;;;18.99;60.82;100823.09;5034914;28;20049;-80
2022/07/28 07:10:35;;;;;;;7.70;1.92;;;20.10;78.40;;;19.00;61.16;100816.50;5028095;28;20037;-80
2022/07/28 07:13:02;;;;;;;11.98;2.10;;;20.20;78.70;;;18.85;60.96;100822.44;5029319;28;20136;-80
2022/07/28 07:15:30;;;;;;;9.75;2.20;;;20.10;78.30;;;18.97;62.51;100819.72;5021449;28;20042;-80
2022/07/28 07:17:57;;;;;;;8.18;2.22;;;20.10;79.70;;;19.10;60.66;100824.22;5024398;28;20052;-80
2022/07/28 07:20:25;;;;;;;8.65;2.13;;;20.20;78.80;;;18.93;60.14;100818.50;5022687;28;20112;-80
2022/07/28 07:22:52;;;;;;;12.48;2.20;;;20.10;77.70;;;18.80;60.32;100818.66;5032585;28;20103;-80
2022/07/28 07:25:20;;;;;;;7.95;1.92;;;20.10;77.60;;;18.86;60.32;100810.31;5026872;28;20383;-81
2022/07/28 07:27:48;;;;;;;8.65;2.50;;;20.10;77.70;;;19.05;60.62;100804.75;5009487;28;20117;-81
2022/07/28 07:30:16;;;;;;;8.35;1.88;;;20.10;78.30;;;19.07;60.25;100803.44;5029970;28;20077;-81
2022/07/28 07:32:45;;;;;;;6.63;1.73;;;20.10;78.10;;;19.23;60.05;100801.97;5027215;28;20044;-81
2022/07/28 07:35:13;;;;;;;9.50;1.80;;;20.10;78.00;;;19.44;62.30;100811.63;5026800;28;20045;-81
2022/07/28 07:37:40;;;;;;;10.40;2.22;;;20.20;79.80;;;19.43;59.00;100806.31;5029397;28;20057;-81
2022/07/28 07:40:09;;;;;;;6.18;2.10;;;20.20;77.70;;;19.57;58.51;100799.50;5009495;28;20077;-81
2022/07/28 07:42:36;;;;;;;8.77;1.70;;;20.30;77.90;;;19.59;58.33;100807.56;5041346;28;20055;-81
2022/07/28 07:45:05;;;;;;;9.25;1.92;;;20.30;77.30;;;19.74;58.99;100788.63;5035080;28;20075;-81
2022/07/28 07:47:32;;;;;;;8.18;2.25;;;20.30;77.90;;;19.91;58.24;100792.38;5040446;28;20037;-82
2022/07/28 07:50:01;;;;;;;12.38;2.17;;;20.40;77.70;;;20.14;57.61;100787.91;5017749;28;20045;-81
2022/07/28 07:52:28;;;;;;;6.28;1.67;;;20.40;77.70;;;20.02;56.54;100792.63;5024595;28;20048;-81
2022/07/28 07:54:55;;;;;;;7.68;1.90;;;20.50;76.50;;;19.91;57.82;100786.88;5028122;28;20509;-81
2022/07/28 07:57:22;;;;;;;11.68;1.92;;;20.50;76.90;;;20.04;58.53;100790.44;5033633;28;20498;-81
2022/07/28 07:59:49;;;;;;;5.85;1.65;;;20.50;77.60;;;19.65;58.08;100784.53;5025342;28;20045;-81
2022/07/28 08:02:17;;;;;;;9.90;1.80;;;20.50;76.10;;;19.45;58.14;100784.84;5029649;28;20570;-81
2022/07/28 08:04:44;;;;;;;6.85;1.83;;;20.50;76.00;;;19.59;60.25;100788.22;5026294;28;20045;-81
2022/07/28 08:07:12;;;;;;;6.97;1.70;;;20.50;77.90;;;19.58;58.61;100781.03;5036304;28;20030;-81
2022/07/28 08:09:39;;;;;;;9.00;2.20;;;20.50;77.10;;;19.72;58.67;100782.50;5030487;28;20042;-81
2022/07/28 08:12:08;;;;;;;10.63;1.80;;;20.50;77.30;;;19.72;58.13;100782.50;5032169;28;20042;-81
2022/07/28 08:14:35;;;;;;;9.20;2.00;;;20.60;76.60;;;19.72;57.68;100790.78;5039267;28;20042;-81
2022/07/28 08:17:02;;;;;;;13.60;2.40;;;20.60;76.40;;;19.70;58.28;100781.88;5026384;28;20037;-80
2022/07/28 08:19:29;;;;;;;6.65;1.75;;;20.60;76.40;;;19.79;58.35;100783.25;5028945;28;20137;-81
2022/07/28 08:21:56;;;;;;;9.48;1.90;;;20.60;76.50;;;19.91;58.67;100778.56;5029833;28;20041;-81
2022/07/28 08:24:25;;;;;;;11.20;1.92;;;20.70;77.20;;;19.97;58.75;100787.81;5022732;28;21413;-89
2022/07/28 08:26:52;;;;;;;9.50;2.05;;;20.70;77.10;;;19.91;57.67;100789.63;5030715;28;20048;-82
2022/07/28 08:29:19;;;;;;;7.13;1.50;;;20.80;76.20;;;19.90;57.91;100789.84;5028738;28;20132;-82
2022/07/28 08:31:47;;;;;;;10.43;1.73;;;20.70;76.20;;;19.81;57.25;100783.84;5026890;28;20411;-82
2022/07/28 08:34:14;;;;;;;7.80;1.90;;;20.80;75.80;;;19.57;57.50;100784.84;5030328;28;20128;-82
2022/07/28 08:36:41;;;;;;;7.28;1.88;;;20.70;75.20;;;19.56;58.01;100788.72;5031153;28;20057;-82
2022/07/28 08:39:08;;;;;;;8.35;2.08;;;20.70;75.90;;;19.39;57.38;100786.63;5030432;28;20053;-82
2022/07/28 08:41:48;;;;;;;5.80;1.67;;;20.70;74.80;;;19.43;59.36;100785.06;5028915;28;20063;-82
2022/07/28 08:44:18;;;;;;;4.90;1.73;;;20.60;76.50;;;19.46;59.13;100773.56;5030485;28;20394;-82
2022/07/28 08:46:48;;;;;;;8.00;1.75;;;20.60;76.30;;;19.48;58.49;100776.94;5019457;28;20129;-82
2022/07/28 08:49:16;;;;;;;7.30;1.60;;;20.70;76.20;;;19.47;58.89;100774.41;5011051;28;20413;-83
2022/07/28 08:51:47;;;;;;;8.10;1.83;;;20.60;76.00;;;19.73;58.89;100764.88;5036351;28;20118;-82
2022/07/28 08:54:20;;;;;;;10.88;2.00;;;20.70;77.60;;;19.94;57.85;100770.88;5024320;28;20536;-84
2022/07/28 08:56:49;;;;;;;5.15;1.45;;;20.80;76.50;;;20.15;58.97;100755.59;5038795;28;20748;-84
2022/07/28 08:59:16;;;;;;;9.85;1.90;;;20.80;77.70;;;20.24;57.21;100763.28;5017764;28;20049;-83
2022/07/28 09:01:45;;;;;;;7.53;1.73;;;20.90;77.50;;;20.05;55.10;100759.00;5018093;28;20083;-81
2022/07/28 09:04:12;;;;;;;7.93;1.90;;;20.90;74.10;;;19.95;55.95;100764.25;5033127;28;20058;-88
2022/07/28 09:06:42;;;;;;;7.93;2.08;;;20.90;74.30;;;20.08;55.89;100775.91;5029959;28;20405;-90
2022/07/28 09:09:10;;;;;;;6.53;1.65;;;20.90;74.80;;;20.05;55.16;100761.75;5047868;22;21896;-85
2022/07/28 09:11:37;;;;;;;4.80;1.63;;;20.90;73.70;;;20.19;55.82;100760.41;5062799;28;20555;-85
2022/07/28 09:14:06;;;;;;;6.13;1.63;;;20.90;75.10;;;20.28;55.82;100763.63;5068529;28;20412;-85
2022/07/28 09:16:34;;;;;;;6.78;1.98;;;21.00;75.10;;;20.16;54.73;100754.50;5057070;28;20054;-85
2022/07/28 09:19:01;;;;;;;7.97;1.60;;;21.00;74.10;;;20.21;55.19;100763.75;5054306;28;20527;-85
2022/07/28 09:21:28;;;;;;;7.78;1.77;;;21.00;73.70;;;20.27;54.48;100750.88;5046294;28;20045;-85
2022/07/28 09:23:56;;;;;;;4.38;1.77;;;21.00;73.60;;;20.09;54.23;100754.66;5051993;28;20252;-85
2022/07/28 09:26:23;;;;;;;6.28;1.90;;;21.00;72.50;;;20.03;54.85;100766.66;5040241;28;20037;-85
2022/07/28 09:28:53;;;;;;;8.70;1.50;;;21.00;73.00;;;20.07;53.96;100756.81;5046050;28;20077;-88
2022/07/28 09:31:24;;;;;;;5.25;1.63;;;21.00;72.20;;;20.05;54.61;100747.94;5037108;28;20041;-88
2022/07/28 09:33:59;;;;;;;9.13;1.73;;;21.00;72.50;;;20.20;54.96;100756.56;5026865;28;20539;-85
2022/07/28 09:36:27;;;;;;;11.00;2.20;;;21.10;73.70;;;20.16;54.26;100741.53;5028048;28;20065;-85
2022/07/28 09:38:55;;;;;;;8.35;1.63;;;21.10;73.00;;;20.03;53.81;100741.78;5029341;28;20064;-85
2022/07/28 09:41:23;;;;;;;9.10;1.85;;;21.10;71.90;;;20.02;54.20;100742.88;5053100;28;20049;-85
2022/07/28 09:43:52;;;;;;;4.13;1.30;;;21.00;72.50;;;19.99;53.61;100732.31;5043609;28;20037;-85
2022/07/28 09:46:23;;;;;;;11.65;1.50;;;21.00;71.40;;;20.12;54.08;100734.81;5051794;28;20047;-85
2022/07/28 09:48:54;;;;;;;8.07;1.92;;;21.10;72.30;;;20.06;54.06;100733.03;5050163;28;20048;-85
2022/07/28 09:51:25;;;;;;;6.80;1.50;;;21.10;72.00;;;20.12;53.81;100734.81;5044707;28;20497;-84
2022/07/28 09:53:53;;;;;;;5.20;1.52;;;21.10;72.00;;;20.18;53.73;100736.63;5047161;28;20120;-80
2022/07/28 09:56:22;;;;;;;5.28;1.40;;;21.10;71.90;;;20.13;53.64;100728.22;5041760;28;20045;-81
2022/07/28 09:58:58;;;;;;;8.95;1.52;;;21.10;71.80;;;20.26;54.95;100727.94;5040420;28;20032;-80
2022/07/28 10:01:27;;;;;;;5.75;1.50;;;21.10;73.10;;;20.30;53.46;100740.19;5043408;28;20124;-80
2022/07/28 10:03:57;;;;;;;7.45;1.60;;;21.20;71.90;;;20.20;53.22;100728.94;5059763;28;20052;-80
2022/07/28 10:06:28;;;;;;;5.28;1.50;;;21.10;71.70;;;20.21;53.28;100736.13;5061411;28;20051;-80
2022/07/28 10:08:56;;;;;;;;;;;21.20;71.60;;;20.27;52.90;100740.66;5047666;28;20135;-80
2022/07/28 10:11:27;;;;;;;5.15;1.80;;;21.10;71.00;;;20.38;53.75;100724.31;5045723;28;19974;-80
2022/07/28 10:14:01;;;;;;;7.03;1.67;;;21.20;72.30;;;20.52;54.59;100725.69;5046169;28;20414;-80
2022/07/28 10:16:32;;;;;;;12.75;1.65;;;21.30;73.50;;;20.56;52.19;100723.28;5053410;28;20041;-80
2022/07/28 10:19:02;;;;;;;5.88;1.77;;;21.30;71.30;;;20.49;52.64;100717.91;5048378;28;20103;-80
2022/07/28 10:21:31;;;;;;;7.85;1.55;;;21.30;71.00;;;20.39;51.36;100726.84;5045903;28;20043;-80
2022/07/28 10:24:02;;;;;;;8.18;1.50;;;21.30;70.00;;;20.25;51.60;100711.59;5044517;28;20041;-80